VIR45W EGLL-KJFK
Flight info
| Callsign | VIR45W |
|---|---|
| Flight time | N/A |
| Altitude | 36000 |
| Route | ULTIB T420 TNT UL28 PENIL M144 BAGSO DCT DOGAL/M085F380 DCT 54N020W 53N030W 51N040W 49N050W DCT JOOPY/N0485F380 N328A TUSKY DCT PLYMM PARCH4 |
| Aircraft | A35K/H-SDE2E3GHIJ3J4J5LM1ORWXY/LB1D1 |
Departure
| Time | 2026-05-08 08:13 |
|---|---|
| Airport | London Heathrow Airport (EGLL) |
Arrival
| Time | N/A |
|---|---|
| Airport | John F. Kennedy International Airport (KJFK) |
| Time | Latitude | Longitude | Altitude | Speed | Heading |
|---|---|---|---|---|---|
| 2026-05-08 07:41 | 51.47211 | -0.46257 | 92 ft | 0 kts | 56° |
| 2026-05-08 08:03 | 51.47207 | -0.46267 | 95 ft | 4 kts | 56° |
| 2026-05-08 08:03 | 51.47193 | -0.46300 | 91 ft | 1 kts | 56° |
| 2026-05-08 08:03 | 51.47178 | -0.46327 | 92 ft | 4 kts | 26° |
| 2026-05-08 08:03 | 51.47155 | -0.46332 | 91 ft | 4 kts | 334° |
| 2026-05-08 08:04 | 51.47133 | -0.46311 | 94 ft | 4 kts | 326° |
| 2026-05-08 08:04 | 51.47123 | -0.46299 | 92 ft | 0 kts | 326° |
| 2026-05-08 08:06 | 51.47123 | -0.46300 | 92 ft | 1 kts | 326° |
| 2026-05-08 08:06 | 51.47135 | -0.46313 | 90 ft | 4 kts | 327° |
| 2026-05-08 08:06 | 51.47165 | -0.46343 | 91 ft | 6 kts | 327° |
| 2026-05-08 08:06 | 51.47209 | -0.46393 | 97 ft | 9 kts | 315° |
| 2026-05-08 08:07 | 51.47237 | -0.46497 | 93 ft | 12 kts | 281° |
| 2026-05-08 08:07 | 51.47238 | -0.46644 | 92 ft | 15 kts | 269° |
| 2026-05-08 08:07 | 51.47233 | -0.46801 | 95 ft | 11 kts | 253° |
| 2026-05-08 08:07 | 51.47167 | -0.46861 | 95 ft | 12 kts | 188° |
| 2026-05-08 08:08 | 51.47073 | -0.46864 | 92 ft | 14 kts | 179° |
| 2026-05-08 08:08 | 51.47004 | -0.46863 | 92 ft | 16 kts | 179° |
| 2026-05-08 08:08 | 51.46887 | -0.46861 | 96 ft | 18 kts | 179° |
| 2026-05-08 08:08 | 51.46759 | -0.46860 | 94 ft | 19 kts | 180° |
| 2026-05-08 08:09 | 51.46663 | -0.46960 | 95 ft | 18 kts | 257° |
| 2026-05-08 08:09 | 51.46657 | -0.47176 | 95 ft | 21 kts | 270° |
| 2026-05-08 08:09 | 51.46656 | -0.47414 | 96 ft | 22 kts | 269° |
| 2026-05-08 08:09 | 51.46654 | -0.47672 | 93 ft | 24 kts | 269° |
| 2026-05-08 08:10 | 51.46653 | -0.47936 | 94 ft | 23 kts | 270° |
| 2026-05-08 08:10 | 51.46653 | -0.48187 | 92 ft | 22 kts | 270° |
| 2026-05-08 08:10 | 51.46652 | -0.48421 | 92 ft | 18 kts | 270° |
| 2026-05-08 08:10 | 51.46652 | -0.48636 | 94 ft | 20 kts | 270° |
| 2026-05-08 08:11 | 51.46608 | -0.48754 | 96 ft | 8 kts | 206° |
| 2026-05-08 08:11 | 51.46605 | -0.48756 | 96 ft | 0 kts | 205° |
| 2026-05-08 08:11 | 51.46604 | -0.48756 | 96 ft | 1 kts | 205° |
| 2026-05-08 08:11 | 51.46589 | -0.48767 | 95 ft | 4 kts | 202° |
| 2026-05-08 08:12 | 51.46556 | -0.48779 | 95 ft | 6 kts | 184° |
| 2026-05-08 08:12 | 51.46509 | -0.48758 | 96 ft | 8 kts | 148° |
| 2026-05-08 08:12 | 51.46480 | -0.48678 | 95 ft | 9 kts | 99° |
| 2026-05-08 08:12 | 51.46479 | -0.48490 | 94 ft | 41 kts | 90° |
| 2026-05-08 08:13 | 51.46482 | -0.47658 | 94 ft | 107 kts | 90° |
| 2026-05-08 08:13 | 51.46487 | -0.46153 | 99 ft | 161 kts | 90° |
| 2026-05-08 08:13 | 51.46491 | -0.44361 | 826 ft | 153 kts | 90° |
| 2026-05-08 08:13 | 51.46574 | -0.42631 | 1416 ft | 165 kts | 79° |
| 2026-05-08 08:14 | 51.47147 | -0.40878 | 1702 ft | 192 kts | 53° |
| 2026-05-08 08:14 | 51.48090 | -0.39167 | 2017 ft | 218 kts | 51° |
| 2026-05-08 08:14 | 51.49157 | -0.37246 | 2365 ft | 242 kts | 51° |
| 2026-05-08 08:14 | 51.50283 | -0.35141 | 2928 ft | 253 kts | 52° |
| 2026-05-08 08:15 | 51.51415 | -0.32950 | 3693 ft | 257 kts | 54° |
| 2026-05-08 08:15 | 51.52277 | -0.30443 | 4420 ft | 258 kts | 71° |
| 2026-05-08 08:15 | 51.52868 | -0.27695 | 5160 ft | 262 kts | 74° |
| 2026-05-08 08:15 | 51.53632 | -0.25004 | 5873 ft | 270 kts | 57° |
| 2026-05-08 08:16 | 51.55030 | -0.23014 | 6597 ft | 278 kts | 27° |
| 2026-05-08 08:16 | 51.56916 | -0.22313 | 7345 ft | 282 kts | 357° |
| 2026-05-08 08:16 | 51.58864 | -0.22745 | 8203 ft | 284 kts | 347° |
| 2026-05-08 08:16 | 51.60809 | -0.23411 | 9039 ft | 287 kts | 344° |
| 2026-05-08 08:17 | 51.62665 | -0.24596 | 9881 ft | 287 kts | 328° |
| 2026-05-08 08:17 | 51.64403 | -0.26237 | 10558 ft | 296 kts | 326° |
| 2026-05-08 08:17 | 51.66217 | -0.28026 | 10918 ft | 316 kts | 326° |
| 2026-05-08 08:17 | 51.68130 | -0.29899 | 11274 ft | 335 kts | 326° |
| 2026-05-08 08:18 | 51.70180 | -0.31901 | 11614 ft | 353 kts | 327° |
| 2026-05-08 08:18 | 51.72347 | -0.34006 | 12234 ft | 361 kts | 327° |
| 2026-05-08 08:18 | 51.74489 | -0.36077 | 12980 ft | 365 kts | 327° |
| 2026-05-08 08:18 | 51.76682 | -0.38192 | 13734 ft | 370 kts | 327° |
| 2026-05-08 08:19 | 51.78902 | -0.40334 | 14399 ft | 374 kts | 327° |
| 2026-05-08 08:19 | 51.81148 | -0.42505 | 15027 ft | 378 kts | 327° |
| 2026-05-08 08:19 | 51.83424 | -0.44703 | 15682 ft | 383 kts | 327° |
| 2026-05-08 08:19 | 51.85727 | -0.46935 | 16277 ft | 387 kts | 327° |
| 2026-05-08 08:20 | 51.88045 | -0.49190 | 16927 ft | 391 kts | 327° |
| 2026-05-08 08:20 | 51.90393 | -0.51476 | 17597 ft | 396 kts | 327° |
| 2026-05-08 08:20 | 51.92731 | -0.53757 | 18247 ft | 400 kts | 327° |
| 2026-05-08 08:20 | 51.95132 | -0.56100 | 18874 ft | 404 kts | 327° |
| 2026-05-08 08:21 | 51.97547 | -0.58452 | 19512 ft | 407 kts | 327° |
| 2026-05-08 08:21 | 51.99981 | -0.60830 | 20178 ft | 410 kts | 327° |
| 2026-05-08 08:21 | 52.02427 | -0.63228 | 20813 ft | 413 kts | 327° |
| 2026-05-08 08:21 | 52.04900 | -0.65656 | 21475 ft | 416 kts | 327° |
| 2026-05-08 08:22 | 52.07379 | -0.68092 | 22116 ft | 419 kts | 327° |
| 2026-05-08 08:22 | 52.09885 | -0.70558 | 22739 ft | 422 kts | 327° |
| 2026-05-08 08:22 | 52.12409 | -0.73042 | 23369 ft | 426 kts | 327° |
| 2026-05-08 08:22 | 52.14952 | -0.75549 | 23940 ft | 429 kts | 327° |
| 2026-05-08 08:23 | 52.17512 | -0.78075 | 24459 ft | 432 kts | 327° |
| 2026-05-08 08:23 | 52.20086 | -0.80619 | 24995 ft | 434 kts | 327° |
| 2026-05-08 08:23 | 52.22682 | -0.83189 | 25519 ft | 437 kts | 327° |
| 2026-05-08 08:23 | 52.25286 | -0.85769 | 26039 ft | 439 kts | 327° |
| 2026-05-08 08:24 | 52.27911 | -0.88367 | 26552 ft | 442 kts | 327° |
| 2026-05-08 08:24 | 52.30539 | -0.90977 | 27085 ft | 444 kts | 327° |
| 2026-05-08 08:24 | 52.33183 | -0.93612 | 27591 ft | 446 kts | 327° |
| 2026-05-08 08:24 | 52.35839 | -0.96263 | 28101 ft | 449 kts | 327° |
| 2026-05-08 08:25 | 52.38514 | -0.98937 | 28599 ft | 451 kts | 327° |
| 2026-05-08 08:25 | 52.41191 | -1.01617 | 29348 ft | 447 kts | 328° |
| 2026-05-08 08:25 | 52.43834 | -1.04263 | 30038 ft | 445 kts | 328° |
| 2026-05-08 08:25 | 52.46453 | -1.06888 | 30383 ft | 449 kts | 328° |
| 2026-05-08 08:26 | 52.49122 | -1.09567 | 30682 ft | 452 kts | 328° |
| 2026-05-08 08:26 | 52.51811 | -1.12268 | 31020 ft | 454 kts | 328° |
| 2026-05-08 08:26 | 52.54519 | -1.14993 | 31356 ft | 457 kts | 327° |
| 2026-05-08 08:26 | 52.57232 | -1.17725 | 31694 ft | 459 kts | 327° |
| 2026-05-08 08:27 | 52.59958 | -1.20471 | 32008 ft | 460 kts | 327° |
| 2026-05-08 08:27 | 52.62692 | -1.23234 | 32333 ft | 462 kts | 327° |
| 2026-05-08 08:27 | 52.65431 | -1.26009 | 32771 ft | 460 kts | 327° |
| 2026-05-08 08:27 | 52.68159 | -1.28777 | 33233 ft | 458 kts | 327° |
| 2026-05-08 08:28 | 52.70875 | -1.31533 | 33676 ft | 457 kts | 327° |
| 2026-05-08 08:28 | 52.73576 | -1.34273 | 34180 ft | 455 kts | 326° |
| 2026-05-08 08:28 | 52.76235 | -1.36983 | 34481 ft | 455 kts | 326° |
| 2026-05-08 08:28 | 52.78938 | -1.39745 | 34683 ft | 457 kts | 326° |
| 2026-05-08 08:29 | 52.81646 | -1.42519 | 34911 ft | 458 kts | 326° |
| 2026-05-08 08:29 | 52.84355 | -1.45296 | 35155 ft | 459 kts | 326° |
| 2026-05-08 08:29 | 52.87073 | -1.48085 | 35373 ft | 460 kts | 326° |
| 2026-05-08 08:29 | 52.89789 | -1.50875 | 35586 ft | 461 kts | 326° |
| 2026-05-08 08:30 | 52.92518 | -1.53682 | 35871 ft | 459 kts | 326° |
| 2026-05-08 08:30 | 52.95238 | -1.56483 | 36084 ft | 461 kts | 326° |
| 2026-05-08 08:30 | 53.00734 | -1.62158 | 36103 ft | 468 kts | 326° |
| 2026-05-08 08:31 | 53.06230 | -1.67845 | 36088 ft | 467 kts | 326° |
| 2026-05-08 08:31 | 53.11749 | -1.73575 | 36081 ft | 467 kts | 325° |
| 2026-05-08 08:32 | 53.17257 | -1.79321 | 36085 ft | 467 kts | 325° |
| 2026-05-08 08:32 | 53.22415 | -1.85841 | 36079 ft | 463 kts | 313° |
| 2026-05-08 08:33 | 53.26230 | -1.94382 | 36095 ft | 459 kts | 297° |
| 2026-05-08 08:33 | 53.29177 | -2.03859 | 36083 ft | 460 kts | 295° |
| 2026-05-08 08:34 | 53.31981 | -2.13443 | 36095 ft | 457 kts | 294° |
| 2026-05-08 08:34 | 53.34763 | -2.22992 | 36114 ft | 455 kts | 294° |
| 2026-05-08 08:35 | 53.36989 | -2.32898 | 36092 ft | 454 kts | 288° |
| 2026-05-08 08:35 | 53.38941 | -2.42974 | 36093 ft | 454 kts | 287° |
| 2026-05-08 08:36 | 53.40827 | -2.53008 | 36105 ft | 454 kts | 287° |
| 2026-05-08 08:36 | 53.42720 | -2.63106 | 36084 ft | 453 kts | 286° |
| 2026-05-08 08:37 | 53.44602 | -2.73158 | 36069 ft | 451 kts | 286° |
| 2026-05-08 08:37 | 53.46473 | -2.83184 | 36069 ft | 451 kts | 286° |
| 2026-05-08 08:38 | 53.48319 | -2.93121 | 36069 ft | 451 kts | 286° |
| 2026-05-08 08:38 | 53.50167 | -3.03114 | 36087 ft | 450 kts | 286° |
| 2026-05-08 08:39 | 53.52001 | -3.13118 | 36074 ft | 450 kts | 285° |
| 2026-05-08 08:39 | 53.53839 | -3.23192 | 36075 ft | 450 kts | 285° |
| 2026-05-08 08:40 | 53.55664 | -3.33244 | 36075 ft | 449 kts | 285° |
| 2026-05-08 08:40 | 53.57483 | -3.43318 | 36073 ft | 449 kts | 285° |
| 2026-05-08 08:41 | 53.59296 | -3.53387 | 36069 ft | 449 kts | 285° |
| 2026-05-08 08:41 | 53.61059 | -3.63488 | 36068 ft | 449 kts | 282° |
| 2026-05-08 08:42 | 53.61922 | -3.73792 | 36061 ft | 447 kts | 274° |
| 2026-05-08 08:42 | 53.62393 | -3.84224 | 36061 ft | 447 kts | 273° |
| 2026-05-08 08:43 | 53.62794 | -3.94691 | 36063 ft | 447 kts | 273° |
| 2026-05-08 08:43 | 53.63193 | -4.05147 | 36065 ft | 447 kts | 273° |
| 2026-05-08 08:44 | 53.63599 | -4.15598 | 36073 ft | 447 kts | 273° |
| 2026-05-08 08:44 | 53.63995 | -4.26038 | 36058 ft | 446 kts | 272° |
| 2026-05-08 08:45 | 53.64382 | -4.36476 | 36053 ft | 446 kts | 272° |
| 2026-05-08 08:45 | 53.64761 | -4.46918 | 36053 ft | 446 kts | 272° |
| 2026-05-08 08:46 | 53.65131 | -4.57351 | 36063 ft | 446 kts | 272° |
| 2026-05-08 08:46 | 53.65486 | -4.67713 | 36065 ft | 446 kts | 272° |
| 2026-05-08 08:47 | 53.65835 | -4.78151 | 36056 ft | 445 kts | 271° |
| 2026-05-08 08:47 | 53.66181 | -4.88571 | 36068 ft | 445 kts | 271° |
| 2026-05-08 08:48 | 53.66519 | -4.98992 | 36062 ft | 445 kts | 271° |
| 2026-05-08 08:48 | 53.66845 | -5.09430 | 36073 ft | 445 kts | 271° |
| 2026-05-08 08:49 | 53.67166 | -5.19852 | 36064 ft | 445 kts | 271° |
| 2026-05-08 08:49 | 53.67468 | -5.30285 | 36067 ft | 445 kts | 271° |
| 2026-05-08 08:50 | 53.67756 | -5.40697 | 36067 ft | 444 kts | 271° |
| 2026-05-08 08:50 | 53.68038 | -5.51114 | 36067 ft | 444 kts | 270° |
| 2026-05-08 08:51 | 53.68651 | -5.61445 | 36070 ft | 446 kts | 275° |
| 2026-05-08 08:51 | 53.69510 | -5.71798 | 36067 ft | 446 kts | 275° |
| 2026-05-08 08:52 | 53.70326 | -5.82178 | 36064 ft | 446 kts | 275° |
| 2026-05-08 08:52 | 53.71077 | -5.92559 | 36061 ft | 446 kts | 274° |
| 2026-05-08 08:53 | 53.71798 | -6.02950 | 36064 ft | 446 kts | 274° |
| 2026-05-08 08:53 | 53.72509 | -6.13354 | 36062 ft | 446 kts | 274° |
| 2026-05-08 08:54 | 53.73210 | -6.23700 | 36059 ft | 445 kts | 274° |
| 2026-05-08 08:54 | 53.73906 | -6.34086 | 36056 ft | 445 kts | 274° |
| 2026-05-08 08:55 | 53.74594 | -6.44487 | 36056 ft | 445 kts | 274° |
| 2026-05-08 08:55 | 53.75159 | -6.53140 | 36053 ft | 445 kts | 274° |
| 2026-05-08 08:56 | 53.75830 | -6.63536 | 36056 ft | 445 kts | 274° |
| 2026-05-08 08:56 | 53.76491 | -6.73934 | 36059 ft | 445 kts | 274° |
| 2026-05-08 08:57 | 53.77143 | -6.84333 | 36059 ft | 445 kts | 273° |
| 2026-05-08 08:57 | 53.77786 | -6.94741 | 36056 ft | 445 kts | 273° |
| 2026-05-08 08:58 | 53.78420 | -7.05145 | 36056 ft | 445 kts | 273° |
| 2026-05-08 08:58 | 53.79043 | -7.15501 | 36051 ft | 444 kts | 273° |
| 2026-05-08 08:59 | 53.79658 | -7.25885 | 36051 ft | 444 kts | 273° |
| 2026-05-08 08:59 | 53.80264 | -7.36280 | 36054 ft | 444 kts | 272° |
| 2026-05-08 09:00 | 53.80859 | -7.46664 | 36054 ft | 443 kts | 272° |
| 2026-05-08 09:00 | 53.81446 | -7.57040 | 36054 ft | 443 kts | 272° |
| 2026-05-08 09:01 | 53.82024 | -7.67438 | 36051 ft | 443 kts | 272° |
| 2026-05-08 09:01 | 53.82595 | -7.77850 | 36050 ft | 443 kts | 272° |
| 2026-05-08 09:02 | 53.83152 | -7.88178 | 36059 ft | 443 kts | 272° |
| 2026-05-08 09:02 | 53.83704 | -7.98596 | 36047 ft | 443 kts | 272° |
| 2026-05-08 09:03 | 53.84246 | -8.08993 | 36047 ft | 443 kts | 272° |
| 2026-05-08 09:03 | 53.84780 | -8.19394 | 36050 ft | 443 kts | 272° |
| 2026-05-08 09:04 | 53.85300 | -8.29734 | 36051 ft | 443 kts | 272° |
| 2026-05-08 09:04 | 53.85816 | -8.40142 | 36066 ft | 443 kts | 271° |
| 2026-05-08 09:05 | 53.86323 | -8.50550 | 36050 ft | 443 kts | 271° |
| 2026-05-08 09:05 | 53.86821 | -8.60977 | 36049 ft | 443 kts | 271° |
| 2026-05-08 09:06 | 53.87309 | -8.71378 | 36048 ft | 443 kts | 271° |
| 2026-05-08 09:06 | 53.87785 | -8.81727 | 36048 ft | 443 kts | 271° |
| 2026-05-08 09:07 | 53.88256 | -8.92142 | 36048 ft | 443 kts | 271° |
| 2026-05-08 09:07 | 53.88718 | -9.02577 | 36058 ft | 443 kts | 271° |
| 2026-05-08 09:08 | 53.89170 | -9.12999 | 36044 ft | 443 kts | 271° |
| 2026-05-08 09:08 | 53.89614 | -9.23421 | 36060 ft | 443 kts | 270° |
| 2026-05-08 09:09 | 53.90044 | -9.33767 | 36069 ft | 443 kts | 270° |
| 2026-05-08 09:09 | 53.90469 | -9.44195 | 36073 ft | 443 kts | 270° |
| 2026-05-08 09:10 | 53.90885 | -9.54621 | 36071 ft | 443 kts | 270° |
| 2026-05-08 09:10 | 53.91292 | -9.65070 | 36075 ft | 444 kts | 270° |
| 2026-05-08 09:11 | 53.91692 | -9.75529 | 36077 ft | 444 kts | 270° |
| 2026-05-08 09:11 | 53.92081 | -9.85970 | 36078 ft | 444 kts | 270° |
| 2026-05-08 09:12 | 53.92459 | -9.96354 | 36089 ft | 444 kts | 270° |
| 2026-05-08 09:12 | 53.92831 | -10.06814 | 36094 ft | 444 kts | 269° |
| 2026-05-08 09:13 | 53.93193 | -10.17282 | 36092 ft | 444 kts | 269° |
| 2026-05-08 09:13 | 53.93547 | -10.27757 | 36092 ft | 444 kts | 269° |
| 2026-05-08 09:14 | 53.93892 | -10.38237 | 36091 ft | 444 kts | 269° |
| 2026-05-08 09:14 | 53.94227 | -10.48710 | 36091 ft | 444 kts | 269° |
| 2026-05-08 09:15 | 53.94554 | -10.59184 | 36101 ft | 444 kts | 269° |
| 2026-05-08 09:15 | 53.94869 | -10.69612 | 36097 ft | 445 kts | 269° |
| 2026-05-08 09:16 | 53.95178 | -10.80114 | 36097 ft | 445 kts | 269° |
| 2026-05-08 09:16 | 53.95478 | -10.90628 | 36098 ft | 445 kts | 269° |
| 2026-05-08 09:17 | 53.95769 | -11.01143 | 36099 ft | 445 kts | 269° |
| 2026-05-08 09:17 | 53.96051 | -11.11652 | 36099 ft | 445 kts | 269° |
| 2026-05-08 09:18 | 53.96323 | -11.22154 | 36102 ft | 445 kts | 268° |
| 2026-05-08 09:18 | 53.96586 | -11.32668 | 36135 ft | 445 kts | 268° |
| 2026-05-08 09:19 | 53.96840 | -11.43180 | 36100 ft | 445 kts | 268° |
| 2026-05-08 09:19 | 53.97082 | -11.53612 | 36105 ft | 445 kts | 268° |